Time;durP1;ratioP1;P1;durP2;ratioP2;P2;SDS_P1;SDS_P2;PMS_P1;PMS_P2;Temp;Humidity;BMP_temperature;BMP_pressure;BME280_temperature;BME280_humidity;BME280_pressure;Samples;Min_cycle;Max_cycle;Signal;HPM_P1;HPM_P2
2022/07/21 00:01:27;;;;;;;5.95;3.42;;;;;;;21.64;43.39;95183.50;4979776;28;20209;-72
2022/07/21 00:03:53;;;;;;;5.07;3.10;;;;;;;21.49;43.38;95189.16;4987068;28;20222;-71
2022/07/21 00:06:18;;;;;;;4.28;3.10;;;;;;;21.51;43.72;95195.09;4985380;28;20236;-72
2022/07/21 00:08:43;;;;;;;5.13;2.88;;;;;;;21.52;43.51;95202.13;4984165;28;20224;-71
2022/07/21 00:11:09;;;;;;;5.30;3.17;;;;;;;21.32;44.12;95202.19;4977983;28;20223;-71
2022/07/21 00:13:35;;;;;;;4.78;2.88;;;;;;;21.21;44.60;95202.88;4986392;28;20219;-70
2022/07/21 00:16:00;;;;;;;5.07;3.05;;;;;;;21.25;44.36;95207.59;4975796;28;20232;-71
2022/07/21 00:18:28;;;;;;;5.20;3.20;;;;;;;21.29;44.47;95202.63;4978766;28;20247;-70
2022/07/21 00:20:55;;;;;;;6.00;3.20;;;;;;;20.82;45.54;95192.13;4983660;28;20227;-70
2022/07/21 00:23:21;;;;;;;5.65;3.58;;;;;;;21.06;45.05;95195.09;4983263;28;20220;-71
2022/07/21 00:25:46;;;;;;;3.25;2.90;;;;;;;21.24;44.49;95199.75;4980695;28;20215;-71
2022/07/21 00:28:12;;;;;;;4.53;3.28;;;;;;;21.14;45.04;95201.06;4979535;28;20231;-71
2022/07/21 00:30:37;;;;;;;8.52;3.22;;;;;;;21.46;44.76;95202.97;4985901;28;20235;-70
2022/07/21 00:33:03;;;;;;;4.70;3.25;;;;;;;21.54;44.44;95200.88;4980351;28;20306;-71
2022/07/21 00:35:29;;;;;;;5.25;3.10;;;;;;;21.51;44.53;95195.09;4975930;28;20216;-72
2022/07/21 00:37:54;;;;;;;3.78;3.25;;;;;;;21.39;45.10;95192.31;4983600;28;20215;-71
2022/07/21 00:40:19;;;;;;;4.80;3.40;;;;;;;21.29;44.51;95197.25;4977500;28;20224;-71
2022/07/21 00:42:45;;;;;;;4.78;3.40;;;;;;;21.42;44.50;95196.41;4987091;28;20242;-71
2022/07/21 00:45:11;;;;;;;4.60;3.13;;;;;;;21.36;44.60;95206.09;4993047;28;20237;-71
2022/07/21 00:47:37;;;;;;;5.22;3.38;;;;;;;21.42;44.99;95207.09;4977368;28;20227;-71
2022/07/21 00:50:06;;;;;;;3.75;3.40;;;;;;;21.27;44.89;95210.84;4986507;28;20208;-71
2022/07/21 00:52:32;;;;;;;4.88;3.03;;;;;;;21.09;45.45;95202.69;4979228;28;20215;-71
2022/07/21 00:54:57;;;;;;;4.95;3.25;;;;;;;21.14;45.49;95210.91;4978186;28;20227;-71
2022/07/21 00:57:23;;;;;;;5.50;3.70;;;;;;;21.15;45.20;95208.03;4985327;28;20223;-71
2022/07/21 00:59:49;;;;;;;5.55;3.63;;;;;;;20.92;45.89;95202.34;4983364;28;20220;-71
2022/07/21 01:02:15;;;;;;;4.65;3.15;;;;;;;20.89;46.36;95205.47;4979854;28;20253;-71
2022/07/21 01:04:41;;;;;;;5.55;3.70;;;;;;;20.87;46.16;95200.31;4981217;28;20200;-71
2022/07/21 01:07:07;;;;;;;5.03;3.10;;;;;;;20.76;46.47;95197.50;4975835;28;20235;-71
2022/07/21 01:09:34;;;;;;;6.55;3.75;;;;;;;20.85;46.40;95185.53;4976906;28;20239;-71
2022/07/21 01:11:59;;;;;;;5.40;3.70;;;;;;;20.87;45.71;95189.63;4976039;28;20266;-71
2022/07/21 01:14:26;;;;;;;5.40;3.25;;;;;;;20.77;45.62;95193.78;4980165;28;20314;-71
2022/07/21 01:16:51;;;;;;;4.97;3.33;;;;;;;20.76;45.22;95195.63;4978023;28;20725;-71
2022/07/21 01:19:17;;;;;;;6.80;2.97;;;;;;;20.75;45.65;95190.50;4975614;28;20224;-71
2022/07/21 01:21:45;;;;;;;5.05;3.00;;;;;;;20.75;44.41;95185.16;4982809;28;20280;-70
2022/07/21 01:24:11;;;;;;;4.65;3.13;;;;;;;20.59;44.73;95181.91;4982120;28;20228;-71
2022/07/21 01:26:48;;;;;;;4.18;3.10;;;;;;;20.51;44.44;95176.78;4990424;28;20237;-70
2022/07/21 01:29:14;;;;;;;4.80;2.88;;;;;;;20.57;43.97;95181.31;4977142;28;20202;-71
2022/07/21 01:31:42;;;;;;;5.63;3.00;;;;;;;20.56;43.66;95173.50;4982127;28;20338;-71
2022/07/21 01:34:08;;;;;;;5.30;3.00;;;;;;;20.48;43.82;95177.19;4990537;28;20223;-71
2022/07/21 01:36:33;;;;;;;3.15;2.80;;;;;;;20.67;43.58;95178.19;4985809;28;20269;-70
2022/07/21 01:41:43;;;;;;;3.35;3.05;;;;;;;20.22;45.46;95173.53;4980624;28;20246;-71
2022/07/21 01:44:11;;;;;;;5.07;3.05;;;;;;;20.33;44.60;95173.94;4989013;28;20203;-71
2022/07/21 01:46:40;;;;;;;3.80;2.97;;;;;;;20.37;45.19;95169.81;4983052;28;20195;-71
2022/07/21 01:49:06;;;;;;;3.70;2.75;;;;;;;20.45;44.91;95170.41;4989074;28;20224;-71
2022/07/21 01:51:33;;;;;;;3.45;2.83;;;;;;;20.38;45.15;95172.28;4980985;28;20230;-71
2022/07/21 01:53:59;;;;;;;4.60;2.90;;;;;;;20.27;45.70;95173.75;4980509;28;20322;-71
2022/07/21 01:56:25;;;;;;;5.93;3.53;;;;;;;20.35;45.50;95177.22;4981656;28;20310;-71
2022/07/21 01:58:52;;;;;;;6.95;3.03;;;;;;;20.42;45.59;95176.19;4985491;28;20246;-71
2022/07/21 02:01:19;;;;;;;3.15;2.90;;;;;;;20.22;46.28;95170.88;4980710;28;20240;-71
2022/07/21 02:03:45;;;;;;;4.22;2.90;;;;;;;20.12;46.89;95175.00;4982479;28;20258;-71
2022/07/21 02:06:12;;;;;;;3.95;3.55;;;;;;;19.98;47.13;95168.84;4980564;28;20250;-71
2022/07/21 02:08:37;;;;;;;3.42;3.13;;;;;;;19.87;47.83;95172.13;4983324;28;20238;-71
2022/07/21 02:11:04;;;;;;;4.93;3.28;;;;;;;19.98;47.96;95164.31;4980910;28;20204;-71
2022/07/21 02:13:30;;;;;;;3.75;3.17;;;;;;;19.92;48.02;95172.34;4975060;28;20554;-71
2022/07/21 02:15:55;;;;;;;3.95;3.20;;;;;;;19.99;47.69;95171.31;4961763;28;20266;-72
2022/07/21 02:18:20;;;;;;;5.80;3.08;;;;;;;19.89;47.80;95170.06;4974122;28;20228;-71
2022/07/21 02:20:50;;;;;;;5.22;3.10;;;;;;;20.00;48.06;95177.47;4975960;28;20220;-71
2022/07/21 02:23:16;;;;;;;4.85;3.58;;;;;;;19.69;49.11;95168.22;4981956;28;20228;-72
2022/07/21 02:25:42;;;;;;;7.40;3.40;;;;;;;19.92;48.61;95161.66;4987583;28;20207;-71
2022/07/21 02:28:07;;;;;;;6.45;3.53;;;;;;;20.17;47.97;95176.00;4978844;28;20223;-71
2022/07/21 02:30:32;;;;;;;4.80;3.45;;;;;;;19.93;48.64;95171.31;4978274;28;20266;-71
2022/07/21 02:32:58;;;;;;;5.75;3.90;;;;;;;19.91;48.77;95173.34;4983722;28;20244;-71
2022/07/21 02:35:23;;;;;;;4.53;3.50;;;;;;;19.81;49.16;95168.44;4982197;28;20465;-71
2022/07/21 02:37:49;;;;;;;4.90;3.47;;;;;;;19.91;48.74;95176.03;4980714;28;20203;-72
2022/07/21 02:40:14;;;;;;;5.35;3.50;;;;;;;19.89;48.76;95172.72;4985190;28;20245;-71
2022/07/21 02:42:40;;;;;;;3.58;3.28;;;;;;;19.67;49.49;95162.25;4997013;28;20222;-71
2022/07/21 02:45:07;;;;;;;6.18;3.50;;;;;;;19.59;49.88;95170.44;4989594;28;20231;-71
2022/07/21 02:47:32;;;;;;;4.68;3.50;;;;;;;19.87;48.96;95166.81;4967691;28;20227;-71
2022/07/21 02:49:58;;;;;;;4.88;3.53;;;;;;;19.99;48.57;95159.81;4987497;28;20212;-71
2022/07/21 02:52:23;;;;;;;5.22;3.65;;;;;;;19.70;49.59;95167.22;4990520;28;20211;-72
2022/07/21 02:54:49;;;;;;;8.15;3.78;;;;;;;19.64;49.45;95161.81;4983911;28;20270;-71
2022/07/21 02:57:14;;;;;;;5.32;3.53;;;;;;;19.63;49.35;95168.19;4986560;28;20230;-71
2022/07/21 02:59:40;;;;;;;4.70;3.88;;;;;;;19.68;49.27;95160.44;4984975;28;20297;-70
2022/07/21 03:02:05;;;;;;;6.25;3.75;;;;;;;19.71;49.24;95166.19;4983934;28;20204;-72
2022/07/21 03:04:31;;;;;;;4.82;3.67;;;;;;;19.61;49.35;95169.22;4988992;28;20226;-72
2022/07/21 03:06:56;;;;;;;6.32;3.63;;;;;;;19.46;50.24;95170.41;4981179;28;20231;-71
2022/07/21 03:09:22;;;;;;;4.93;3.53;;;;;;;18.82;51.00;95167.19;4984102;28;20215;-71
2022/07/21 03:11:47;;;;;;;3.47;3.20;;;;;;;19.24;50.34;95167.09;4986853;28;20309;-71
2022/07/21 03:14:12;;;;;;;5.03;3.35;;;;;;;19.46;49.51;95170.41;4978966;28;20305;-71
2022/07/21 03:16:38;;;;;;;4.97;3.70;;;;;;;19.39;49.23;95171.25;4992493;28;20272;-71
2022/07/21 03:19:03;;;;;;;4.82;3.30;;;;;;;19.48;48.59;95171.03;4991444;28;20270;-71
2022/07/21 03:21:29;;;;;;;4.97;3.45;;;;;;;19.16;49.30;95176.09;4980833;28;20220;-71
2022/07/21 03:23:54;;;;;;;4.88;3.20;;;;;;;18.93;49.59;95179.13;4979143;28;20278;-71
2022/07/21 03:26:19;;;;;;;6.22;3.30;;;;;;;18.44;51.16;95182.75;4984951;28;20219;-71
2022/07/21 03:28:45;;;;;;;4.22;3.50;;;;;;;17.96;52.20;95183.47;4982496;28;20419;-71
2022/07/21 03:31:11;;;;;;;9.02;3.70;;;;;;;18.46;51.28;95186.03;4981319;28;20317;-71
2022/07/21 03:33:36;;;;;;;5.65;3.55;;;;;;;18.77;50.12;95176.81;4982758;28;20220;-71
2022/07/21 03:36:03;;;;;;;5.38;3.30;;;;;;;18.86;49.92;95181.75;4986881;28;20227;-71
2022/07/21 03:38:28;;;;;;;6.68;3.25;;;;;;;19.15;49.28;95179.81;4982523;28;20322;-71
2022/07/21 03:40:54;;;;;;;4.38;3.75;;;;;;;18.57;50.61;95182.81;4991495;28;20207;-71
2022/07/21 03:43:19;;;;;;;7.35;3.88;;;;;;;18.66;50.88;95178.97;4984386;28;20258;-73
2022/07/21 03:45:45;;;;;;;4.80;3.70;;;;;;;18.95;50.44;95185.06;4989459;28;20228;-72
2022/07/21 03:48:12;;;;;;;6.85;3.55;;;;;;;19.28;49.01;95187.03;4980461;28;20211;-71
2022/07/21 03:50:39;;;;;;;7.20;3.78;;;;;;;19.26;49.52;95191.72;4991520;28;20219;-70
2022/07/21 03:53:06;;;;;;;5.97;3.53;;;;;;;19.32;49.41;95191.72;4987036;28;20208;-71
2022/07/21 03:55:31;;;;;;;5.05;3.95;;;;;;;19.47;48.87;95190.75;4986280;28;20265;-71
2022/07/21 03:58:00;;;;;;;5.70;4.07;;;;;;;19.58;48.46;95187.47;4987781;28;20642;-72
2022/07/21 04:00:37;;;;;;;8.90;3.78;;;;;;;19.59;48.20;95186.44;4990070;28;20227;-72
2022/07/21 04:03:04;;;;;;;7.15;4.00;;;;;;;19.62;48.04;95188.72;4984083;28;20223;-70
2022/07/21 04:05:30;;;;;;;6.07;4.13;;;;;;;19.70;47.60;95198.38;4980705;28;20231;-71
2022/07/21 04:07:56;;;;;;;7.05;4.10;;;;;;;19.58;48.11;95190.97;4988273;28;20200;-70
2022/07/21 04:10:25;;;;;;;10.43;3.78;;;;;;;19.49;48.24;95194.84;4988775;28;20211;-71
2022/07/21 04:12:50;;;;;;;4.47;3.40;;;;;;;19.51;48.53;95189.31;4975840;28;20223;-72
2022/07/21 04:15:17;;;;;;;4.88;3.63;;;;;;;19.53;48.51;95192.59;4988109;28;20329;-71
2022/07/21 04:17:43;;;;;;;5.75;4.05;;;;;;;19.69;47.78;95186.91;4976412;28;20641;-71
2022/07/21 04:20:09;;;;;;;6.72;4.15;;;;;;;19.77;47.39;95194.69;4989430;28;20200;-71
2022/07/21 04:22:35;;;;;;;6.95;3.55;;;;;;;19.81;47.35;95193.28;4980482;28;20211;-70
2022/07/21 04:25:01;;;;;;;6.22;3.47;;;;;;;19.86;46.84;95192.66;4982904;28;20231;-71
2022/07/21 04:27:27;;;;;;;5.35;3.85;;;;;;;19.54;48.13;95195.06;4988609;28;20212;-71
2022/07/21 04:29:53;;;;;;;4.72;3.92;;;;;;;19.34;48.23;95183.53;4981235;28;20247;-71
2022/07/21 04:32:19;;;;;;;4.47;3.70;;;;;;;19.65;47.47;95190.97;4980507;28;20222;-71
2022/07/21 04:34:45;;;;;;;4.65;3.90;;;;;;;20.19;46.02;95187.31;4985501;28;20211;-71
2022/07/21 04:37:10;;;;;;;4.65;3.70;;;;;;;21.18;43.10;95198.75;4983037;28;20314;-71
2022/07/21 04:39:36;;;;;;;3.97;3.55;;;;;;;20.88;43.50;95191.28;4982513;28;20731;-70
2022/07/21 04:42:01;;;;;;;4.60;3.55;;;;;;;20.59;44.36;95194.47;4988200;28;20235;-71
2022/07/21 04:44:27;;;;;;;8.93;3.95;;;;;;;20.35;45.14;95191.41;4976512;28;20246;-71
2022/07/21 04:46:52;;;;;;;12.75;4.35;;;;;;;20.34;45.39;95194.25;4985640;28;20213;-71
2022/07/21 04:49:18;;;;;;;5.53;3.90;;;;;;;20.36;45.25;95195.69;4978118;28;20269;-73
2022/07/21 04:51:43;;;;;;;8.63;4.47;;;;;;;20.34;45.48;95194.25;4986220;28;20252;-70
2022/07/21 04:54:13;;;;;;;6.15;4.53;;;;;;;20.28;45.99;95206.59;4986188;28;20220;-71
2022/07/21 04:56:39;;;;;;;10.05;4.60;;;;;;;20.18;46.63;95204.38;4979107;28;20314;-70
2022/07/21 04:59:04;;;;;;;6.18;4.38;;;;;;;19.90;46.13;95201.06;4983923;28;20306;-72
2022/07/21 05:01:30;;;;;;;4.35;3.90;;;;;;;20.14;45.88;95205.78;4980321;28;20208;-66
2022/07/21 05:03:55;;;;;;;6.18;3.85;;;;;;;20.27;45.75;95203.09;4978567;28;20215;-67
2022/07/21 05:06:21;;;;;;;5.05;4.32;;;;;;;20.30;45.31;95206.41;4971091;28;20235;-68
2022/07/21 05:08:47;;;;;;;8.43;4.85;;;;;;;20.34;45.42;95210.28;4981583;28;20229;-68
2022/07/21 05:11:13;;;;;;;6.13;4.63;;;;;;;20.48;45.23;95206.59;4977740;28;20200;-67
2022/07/21 05:13:38;;;;;;;6.28;4.20;;;;;;;20.64;44.88;95202.66;4977730;28;20572;-67
2022/07/21 05:16:04;;;;;;;8.00;4.13;;;;;;;20.74;45.00;95205.69;4976569;28;20258;-65
2022/07/21 05:18:30;;;;;;;5.82;4.45;;;;;;;20.64;44.90;95200.81;4993891;28;20249;-67
2022/07/21 05:20:55;;;;;;;7.28;4.03;;;;;;;20.74;44.29;95200.34;4988152;28;20236;-66
2022/07/21 05:23:20;;;;;;;7.22;4.45;;;;;;;20.87;44.01;95199.50;4976031;28;20224;-67
2022/07/21 05:25:46;;;;;;;16.73;9.10;;;;;;;20.77;44.29;95207.97;4981005;28;20319;-67
2022/07/21 05:28:11;;;;;;;8.75;6.00;;;;;;;20.86;43.54;95208.56;4979385;28;20216;-67
2022/07/21 05:30:37;;;;;;;6.15;4.68;;;;;;;20.91;43.23;95203.41;4977726;28;20254;-69
2022/07/21 05:33:02;;;;;;;7.50;4.60;;;;;;;20.98;43.65;95198.03;4976341;28;20226;-68
2022/07/21 05:35:28;;;;;;;7.75;4.40;;;;;;;20.92;44.45;95199.69;4988264;28;20219;-68
2022/07/21 05:37:53;;;;;;;5.88;4.57;;;;;;;21.07;44.36;95200.25;4981215;28;20215;-68
2022/07/21 05:40:19;;;;;;;9.70;5.03;;;;;;;21.22;44.09;95204.50;4983065;28;20230;-68
2022/07/21 05:42:44;;;;;;;5.88;4.40;;;;;;;21.21;43.72;95209.03;4978058;28;20227;-67
2022/07/21 05:45:11;;;;;;;7.85;4.50;;;;;;;21.07;44.25;95200.25;4992023;28;20252;-67
2022/07/21 05:47:37;;;;;;;7.60;4.63;;;;;;;21.26;43.54;95213.75;4978517;28;20220;-67
2022/07/21 05:50:03;;;;;;;7.75;5.00;;;;;;;21.27;43.42;95204.69;4979666;28;20211;-64
2022/07/21 05:52:28;;;;;;;8.23;4.60;;;;;;;21.30;43.13;95207.75;4985972;28;20358;-64
2022/07/21 05:54:54;;;;;;;7.43;5.00;;;;;;;21.32;42.99;95202.19;4988136;28;20220;-66
2022/07/21 05:57:19;;;;;;;5.60;4.45;;;;;;;21.41;43.89;95210.81;4984021;28;20237;-65
2022/07/21 05:59:45;;;;;;;5.60;4.78;;;;;;;21.59;42.70;95205.56;4988846;28;20224;-66
2022/07/21 06:02:10;;;;;;;7.95;4.15;;;;;;;21.41;43.15;95210.81;4979974;28;20210;-66
2022/07/21 06:04:36;;;;;;;8.15;4.38;;;;;;;21.43;43.09;95211.41;4973195;28;20838;-66
2022/07/21 06:07:01;;;;;;;7.10;4.30;;;;;;;21.62;43.21;95205.13;4973727;28;20297;-64
2022/07/21 06:09:27;;;;;;;8.18;4.45;;;;;;;21.67;42.96;95201.81;4978460;28;20641;-69
2022/07/21 06:11:52;;;;;;;6.47;4.60;;;;;;;21.82;42.70;95202.31;4983181;28;20227;-67
2022/07/21 06:14:18;;;;;;;5.25;4.10;;;;;;;21.92;42.70;95193.78;4984103;28;20247;-69
2022/07/21 06:16:43;;;;;;;7.60;4.65;;;;;;;21.90;42.86;95198.56;4976862;28;20219;-67
2022/07/21 06:19:09;;;;;;;6.80;4.15;;;;;;;21.99;42.73;95200.72;4978905;28;20230;-61
2022/07/21 06:21:34;;;;;;;6.05;4.35;;;;;;;22.12;42.10;95197.13;4986988;28;20227;-63
2022/07/21 06:24:01;;;;;;;9.77;4.45;;;;;;;22.21;41.18;95203.91;4986282;28;20263;-66
2022/07/21 06:26:26;;;;;;;6.18;4.22;;;;;;;22.20;40.99;95198.75;4986767;28;20353;-68
2022/07/21 06:28:51;;;;;;;5.03;4.53;;;;;;;22.25;40.50;95190.88;4989446;28;20222;-69
2022/07/21 06:31:17;;;;;;;5.03;4.05;;;;;;;22.27;41.17;95194.16;4981695;28;20375;-66
2022/07/21 06:33:42;;;;;;;5.22;4.18;;;;;;;22.37;40.90;95197.16;4980475;28;20268;-67
2022/07/21 06:36:08;;;;;;;6.90;3.10;;;;;;;22.39;41.52;95195.06;4978302;28;20242;-67
2022/07/21 06:38:34;;;;;;;8.48;4.03;;;;;;;22.44;40.46;95192.53;4979875;28;20259;-69
2022/07/21 06:40:59;;;;;;;6.15;4.13;;;;;;;22.60;40.16;95190.31;4977915;28;20242;-69
2022/07/21 06:43:25;;;;;;;7.95;4.30;;;;;;;22.72;39.31;95185.88;4986526;28;20214;-67
2022/07/21 06:45:51;;;;;;;7.45;5.10;;;;;;;22.61;39.75;95183.91;4985571;28;20218;-68
2022/07/21 06:48:16;;;;;;;10.13;5.45;;;;;;;22.68;39.76;95179.31;4987030;28;20314;-67
2022/07/21 06:50:42;;;;;;;9.00;4.78;;;;;;;22.72;39.92;95185.88;4984457;28;20740;-67
2022/07/21 06:53:08;;;;;;;11.75;4.10;;;;;;;22.88;40.26;95181.75;4979499;28;20294;-66
2022/07/21 06:55:34;;;;;;;7.35;4.22;;;;;;;22.94;40.31;95178.19;4977114;28;20208;-66
2022/07/21 06:58:18;;;;;;;5.55;3.75;;;;;;;22.93;40.10;95171.16;4981956;28;20286;-69
2022/07/21 07:00:44;;;;;;;7.25;3.85;;;;;;;23.09;39.82;95173.28;4977937;28;20630;-69
2022/07/21 07:03:10;;;;;;;7.57;3.55;;;;;;;23.13;40.66;95173.66;4979114;28;20218;-67
2022/07/21 07:05:36;;;;;;;5.25;3.97;;;;;;;23.18;40.31;95179.16;4977856;28;20224;-68
2022/07/21 07:08:03;;;;;;;6.30;4.18;;;;;;;23.32;38.87;95171.75;4979786;28;20238;-68
2022/07/21 07:10:28;;;;;;;5.55;3.90;;;;;;;23.29;39.55;95175.69;4976890;28;20211;-67
2022/07/21 07:12:55;;;;;;;5.95;3.63;;;;;;;23.40;39.29;95176.78;4972418;28;21110;-67
2022/07/21 07:15:22;;;;;;;8.15;4.03;;;;;;;23.34;40.26;95166.97;4975292;28;20232;-66
2022/07/21 07:17:47;;;;;;;5.93;3.40;;;;;;;23.38;40.98;95167.34;4977278;28;20228;-66
2022/07/21 07:20:13;;;;;;;9.18;4.00;;;;;;;23.59;38.71;95168.69;4979788;28;20258;-66
2022/07/21 07:22:38;;;;;;;9.40;4.32;;;;;;;23.73;39.03;95160.22;4984070;28;20238;-65
2022/07/21 07:25:04;;;;;;;4.95;3.67;;;;;;;23.88;38.29;95156.28;4987746;28;20318;-66
2022/07/21 07:27:30;;;;;;;7.35;4.57;;;;;;;23.93;38.45;95161.78;4978639;28;20223;-65
2022/07/21 07:29:55;;;;;;;7.38;4.47;;;;;;;24.16;37.73;95159.13;4979739;28;20242;-65
2022/07/21 07:32:21;;;;;;;5.13;3.88;;;;;;;24.24;37.30;95162.50;4979080;28;20226;-65
2022/07/21 07:34:46;;;;;;;7.47;3.72;;;;;;;24.35;36.78;95156.31;4980992;28;20230;-65
2022/07/21 07:37:12;;;;;;;5.95;3.85;;;;;;;24.37;37.14;95154.22;4987297;28;20219;-62
2022/07/21 07:39:39;;;;;;;5.20;3.72;;;;;;;24.41;37.98;95144.63;4978056;28;20240;-63
2022/07/21 07:42:05;;;;;;;11.20;6.03;;;;;;;24.59;36.43;95147.22;4975401;28;20239;-62
2022/07/21 07:44:31;;;;;;;9.93;5.55;;;;;;;24.56;36.96;95146.84;4981428;28;20231;-63
2022/07/21 07:46:57;;;;;;;7.55;5.10;;;;;;;24.67;36.30;95143.31;4984758;28;20266;-63
2022/07/21 07:49:22;;;;;;;10.65;3.70;;;;;;;24.74;36.46;95140.53;4975035;28;20200;-63
2022/07/21 07:51:48;;;;;;;7.57;3.53;;;;;;;24.83;36.00;95141.78;4977909;28;20274;-64
2022/07/21 07:54:14;;;;;;;5.05;3.95;;;;;;;24.90;35.63;95142.47;4983165;28;20244;-64
2022/07/21 07:56:40;;;;;;;7.07;3.72;;;;;;;24.93;35.35;95141.97;4990804;28;20235;-64
2022/07/21 07:59:07;;;;;;;6.70;3.15;;;;;;;24.98;36.19;95134.03;4975572;28;20214;-63
2022/07/21 08:01:32;;;;;;;5.18;3.08;;;;;;;25.08;35.54;95134.22;4976742;28;20213;-63
2022/07/21 08:03:58;;;;;;;6.57;3.95;;;;;;;25.07;36.76;95121.00;4983514;28;20224;-66
2022/07/21 08:06:23;;;;;;;5.45;3.78;;;;;;;25.20;36.21;95128.00;4984399;28;20223;-67
2022/07/21 08:08:48;;;;;;;6.07;3.33;;;;;;;25.30;36.04;95129.00;4978809;28;20297;-67
2022/07/21 08:11:15;;;;;;;5.85;3.53;;;;;;;25.34;35.51;95125.84;4978550;28;20212;-65
2022/07/21 08:13:40;;;;;;;3.75;3.05;;;;;;;25.44;34.63;95121.44;4983133;28;20207;-65
2022/07/21 08:16:09;;;;;;;5.00;3.40;;;;;;;25.45;34.91;95117.72;4977426;28;20223;-65
2022/07/21 08:18:34;;;;;;;4.97;2.88;;;;;;;25.52;34.39;95118.34;4984000;28;20225;-64
2022/07/21 08:20:59;;;;;;;4.72;3.08;;;;;;;25.53;35.42;95120.00;4979003;28;20282;-65
2022/07/21 08:23:25;;;;;;;4.68;2.92;;;;;;;25.64;34.83;95117.50;4986541;28;20230;-65
2022/07/21 08:25:50;;;;;;;3.78;3.38;;;;;;;25.71;35.07;95118.13;4982553;28;20311;-65
2022/07/21 08:28:16;;;;;;;3.83;3.00;;;;;;;25.85;34.82;95115.97;4980339;28;20223;-65
2022/07/21 08:30:42;;;;;;;5.38;3.35;;;;;;;25.89;34.33;95120.63;4977520;28;20253;-65
2022/07/21 08:33:07;;;;;;;3.35;3.00;;;;;;;25.91;34.33;95121.19;4986144;28;20231;-65
2022/07/21 08:35:34;;;;;;;4.50;3.00;;;;;;;25.97;34.22;95116.72;4982397;28;20231;-65
2022/07/21 08:38:03;;;;;;;5.50;3.20;;;;;;;26.00;34.11;95118.09;4978549;28;20615;-64
2022/07/21 08:40:30;;;;;;;6.60;3.33;;;;;;;26.03;34.26;95106.81;4984130;28;20207;-66
2022/07/21 08:42:56;;;;;;;8.10;2.80;;;;;;;26.14;34.46;95105.91;4987370;28;20247;-64
2022/07/21 08:45:22;;;;;;;3.88;2.97;;;;;;;26.24;33.37;95103.38;4983418;28;20258;-64
2022/07/21 08:47:53;;;;;;;4.65;3.00;;;;;;;26.27;32.50;95108.25;4977085;28;20216;-63
2022/07/21 08:50:19;;;;;;;5.10;3.28;;;;;;;26.31;32.77;95104.00;4977205;28;20331;-64
2022/07/21 08:52:44;;;;;;;3.83;3.40;;;;;;;26.34;32.65;95097.31;4979916;28;20779;-64
2022/07/21 08:55:10;;;;;;;3.72;3.38;;;;;;;26.48;33.04;95101.28;4975043;28;20256;-63
2022/07/21 08:57:39;;;;;;;3.17;2.88;;;;;;;26.53;32.37;95095.16;4974635;28;20219;-64
2022/07/21 09:00:06;;;;;;;2.90;2.40;;;;;;;26.49;31.69;95099.38;4976558;28;20220;-64
2022/07/21 09:02:34;;;;;;;6.25;3.47;;;;;;;26.55;32.32;95090.34;4974336;28;20224;-62
2022/07/21 09:05:00;;;;;;;4.28;3.00;;;;;;;26.56;32.18;95091.97;4978156;28;20208;-64
2022/07/21 09:07:26;;;;;;;3.05;2.75;;;;;;;26.65;32.14;95079.69;4981724;28;20204;-65
2022/07/21 09:10:02;;;;;;;5.90;3.72;;;;;;;26.72;35.50;95082.19;4977927;28;20251;-65
2022/07/21 09:12:29;;;;;;;4.22;3.15;;;;;;;26.78;33.26;95087.41;4981848;28;20242;-65
2022/07/21 09:15:14;;;;;;;3.97;2.92;;;;;;;26.74;32.48;95072.78;4981798;28;20231;-64
2022/07/21 09:17:40;;;;;;;3.60;3.22;;;;;;;26.84;32.57;95074.78;4984656;28;20322;-62
2022/07/21 09:20:22;;;;;;;3.75;2.90;;;;;;;26.94;32.53;95079.47;4979310;28;20289;-64
2022/07/21 09:23:13;;;;;;;4.85;3.28;;;;;;;26.98;30.92;95080.59;4977954;28;20207;-64
2022/07/21 09:25:48;;;;;;;3.67;2.95;;;;;;;27.06;30.43;95080.97;4977035;28;20240;-64
2022/07/21 09:28:26;;;;;;;3.55;2.90;;;;;;;27.04;29.79;95068.78;4984294;28;20226;-64
2022/07/21 09:30:53;;;;;;;2.83;2.55;;;;;;;27.12;30.42;95071.03;4986764;28;20226;-65
2022/07/21 09:33:26;;;;;;;4.90;2.88;;;;;;;27.15;30.21;95070.53;4977706;28;20239;-64
2022/07/21 09:36:05;;;;;;;3.42;2.88;;;;;;;27.25;30.13;95073.38;4977472;28;20293;-65
2022/07/21 09:38:33;;;;;;;3.75;3.25;;;;;;;27.28;29.99;95063.94;4969852;28;20227;-65
2022/07/21 09:41:05;;;;;;;4.68;3.28;;;;;;;27.36;29.50;95066.16;4978477;28;20261;-64
2022/07/21 09:44:00;;;;;;;4.00;2.92;;;;;;;27.43;29.00;95061.38;4975612;28;20207;-64
2022/07/21 09:46:25;;;;;;;3.78;2.67;;;;;;;27.58;29.72;95060.69;4972230;28;20590;-63
2022/07/21 09:49:00;;;;;;;4.38;2.95;;;;;;;27.76;28.72;95064.91;4980619;28;20223;-64
2022/07/21 09:51:43;;;;;;;4.88;3.10;;;;;;;27.84;29.40;95061.75;4977268;28;20233;-64
2022/07/21 09:54:13;;;;;;;4.20;2.90;;;;;;;28.01;27.65;95069.69;4983759;28;20224;-68
2022/07/21 09:56:43;;;;;;;3.20;2.90;;;;;;;28.09;27.30;95069.22;4985187;28;20262;-67
2022/07/21 09:59:11;;;;;;;2.90;2.70;;;;;;;28.22;26.84;95067.13;4982347;28;20212;-68
2022/07/21 10:01:38;;;;;;;3.58;2.85;;;;;;;28.26;27.17;95062.84;4987283;28;20218;-67
2022/07/21 10:04:04;;;;;;;2.85;2.65;;;;;;;28.32;26.86;95059.88;4983373;28;20223;-68
2022/07/21 10:06:32;;;;;;;3.25;3.03;;;;;;;28.44;26.61;95051.63;4979922;28;20305;-72
2022/07/21 10:08:59;;;;;;;3.83;2.50;;;;;;;28.70;26.36;95047.09;4977437;28;20228;-72
2022/07/21 10:11:26;;;;;;;3.83;3.10;;;;;;;28.86;27.06;95047.16;4984009;28;20223;-69
2022/07/21 10:13:52;;;;;;;3.50;2.83;;;;;;;29.01;26.24;95048.03;4989481;28;20258;-69
2022/07/21 10:16:18;;;;;;;3.83;3.10;;;;;;;29.06;26.19;95057.25;4987731;28;20235;-67
2022/07/21 10:19:05;;;;;;;3.25;2.97;;;;;;;28.95;25.63;95048.25;4983374;28;20235;-67
2022/07/21 10:21:36;;;;;;;3.53;3.22;;;;;;;28.95;25.92;95042.84;4986416;28;20261;-70
2022/07/21 10:24:02;;;;;;;3.53;3.10;;;;;;;29.09;26.15;95032.38;4980764;28;20262;-68
2022/07/21 10:26:27;;;;;;;3.03;2.83;;;;;;;29.23;25.96;95028.06;4978146;28;20251;-69
2022/07/21 10:28:53;;;;;;;3.20;2.85;;;;;;;29.30;26.14;95042.16;4986139;28;20203;-69
2022/07/21 10:31:21;;;;;;;3.45;3.10;;;;;;;29.35;25.48;95036.75;4982994;28;20215;-75
2022/07/21 10:33:47;;;;;;;3.65;2.90;;;;;;;29.43;25.88;95032.66;4981955;28;20250;-78
2022/07/21 10:36:28;;;;;;;4.05;3.22;;;;;;;29.51;24.74;95036.75;4977990;28;20302;-67
2022/07/21 10:39:06;;;;;;;6.00;3.30;;;;;;;29.60;24.78;95030.53;4982604;28;20840;-72
2022/07/21 10:41:40;;;;;;;3.83;3.25;;;;;;;29.71;25.12;95033.28;4984020;28;20223;-72
2022/07/21 10:44:30;;;;;;;4.50;2.92;;;;;;;29.72;23.79;95027.56;4974604;28;20207;-73
2022/07/21 10:47:19;;;;;;;3.80;2.33;;;;;;;29.75;23.64;95023.50;4983670;28;20204;-71
2022/07/21 10:49:54;;;;;;;8.85;2.70;;;;;;;29.90;23.84;95018.06;4985017;28;20200;-73
2022/07/21 10:52:35;;;;;;;4.35;2.75;;;;;;;30.06;24.70;95018.84;4995735;28;20223;-73
2022/07/21 10:55:26;;;;;;;5.43;2.90;;;;;;;30.30;23.68;95019.09;4974149;28;20223;-75
2022/07/21 10:58:15;;;;;;;2.72;2.50;;;;;;;30.32;23.86;95011.50;4976740;28;20223;-73
2022/07/21 11:00:55;;;;;;;4.28;2.90;;;;;;;30.46;24.35;95000.88;4977365;28;20292;-72
2022/07/21 11:03:33;;;;;;;4.07;2.80;;;;;;;30.48;24.15;95004.13;4990761;28;20231;-79
2022/07/21 11:06:23;;;;;;;3.30;3.00;;;;;;;30.58;23.94;94995.09;4985625;28;20227;-69
2022/07/21 11:08:52;;;;;;;3.28;3.00;;;;;;;30.63;23.83;94990.47;5002633;28;20266;-69
2022/07/21 11:11:25;;;;;;;4.45;2.75;;;;;;;30.80;23.69;94995.56;4980493;28;20767;-71
2022/07/21 11:14:10;;;;;;;5.35;2.80;;;;;;;30.95;23.54;95002.81;4977520;28;20214;-69
2022/07/21 11:16:42;;;;;;;4.95;3.00;;;;;;;30.90;23.33;94992.81;4979199;28;20236;-70
2022/07/21 11:19:32;;;;;;;2.88;2.67;;;;;;;30.94;22.98;95001.22;4982263;28;20265;-70
2022/07/21 11:22:00;;;;;;;4.35;2.80;;;;;;;30.86;22.58;94993.66;4984147;28;20231;-72
2022/07/21 11:24:27;;;;;;;3.67;2.80;;;;;;;30.93;22.63;94994.16;4993832;28;20235;-71
2022/07/21 11:27:04;;;;;;;3.15;2.67;;;;;;;30.94;22.68;94984.91;4984219;28;20287;-72
2022/07/21 11:29:30;;;;;;;6.18;3.05;;;;;;;31.25;22.59;94988.25;4979124;28;20223;-73
2022/07/21 11:31:58;;;;;;;3.10;2.83;;;;;;;31.47;22.08;94979.69;4983574;28;20206;-70
2022/07/21 11:34:24;;;;;;;3.05;2.70;;;;;;;31.53;21.79;94983.97;4985027;28;20565;-70
2022/07/21 11:37:02;;;;;;;4.68;3.05;;;;;;;31.63;21.92;94980.38;4975690;28;20236;-72
2022/07/21 11:39:27;;;;;;;3.58;2.80;;;;;;;31.73;21.88;94990.31;4988139;28;20231;-73